sensor_id;sensor_type;location;lat;lon;timestamp;P1;durP1;ratioP1;P2;durP2;ratioP2
22916;SDS011;11624;53.250;7.456;2022-07-29T00:02:26;7.80;;;2.30;;
22916;SDS011;11624;53.250;7.456;2022-07-29T00:04:55;11.90;;;2.78;;
22916;SDS011;11624;53.250;7.456;2022-07-29T00:07:24;8.40;;;2.55;;
22916;SDS011;11624;53.250;7.456;2022-07-29T00:09:52;11.82;;;2.72;;
22916;SDS011;11624;53.250;7.456;2022-07-29T00:12:23;7.43;;;2.28;;
22916;SDS011;11624;53.250;7.456;2022-07-29T00:14:52;8.77;;;2.40;;
22916;SDS011;11624;53.250;7.456;2022-07-29T00:17:21;9.57;;;2.38;;
22916;SDS011;11624;53.250;7.456;2022-07-29T00:19:50;9.45;;;2.42;;
22916;SDS011;11624;53.250;7.456;2022-07-29T00:22:18;4.53;;;1.98;;
22916;SDS011;11624;53.250;7.456;2022-07-29T00:24:47;8.63;;;2.88;;
22916;SDS011;11624;53.250;7.456;2022-07-29T00:27:16;7.57;;;2.05;;
22916;SDS011;11624;53.250;7.456;2022-07-29T00:29:46;6.28;;;2.47;;
22916;SDS011;11624;53.250;7.456;2022-07-29T00:32:15;9.65;;;2.38;;
22916;SDS011;11624;53.250;7.456;2022-07-29T00:34:43;8.68;;;2.50;;
22916;SDS011;11624;53.250;7.456;2022-07-29T00:37:29;10.63;;;2.70;;
22916;SDS011;11624;53.250;7.456;2022-07-29T00:40:02;6.32;;;2.28;;
22916;SDS011;11624;53.250;7.456;2022-07-29T00:42:35;9.15;;;2.40;;
22916;SDS011;11624;53.250;7.456;2022-07-29T00:45:11;5.95;;;2.30;;
22916;SDS011;11624;53.250;7.456;2022-07-29T00:47:40;5.97;;;1.98;;
22916;SDS011;11624;53.250;7.456;2022-07-29T00:50:08;8.00;;;2.25;;
22916;SDS011;11624;53.250;7.456;2022-07-29T00:52:39;8.57;;;2.47;;
22916;SDS011;11624;53.250;7.456;2022-07-29T00:55:11;5.38;;;2.30;;
22916;SDS011;11624;53.250;7.456;2022-07-29T00:57:40;9.30;;;2.50;;
22916;SDS011;11624;53.250;7.456;2022-07-29T01:00:14;7.00;;;2.15;;
22916;SDS011;11624;53.250;7.456;2022-07-29T01:02:45;8.07;;;2.53;;
22916;SDS011;11624;53.250;7.456;2022-07-29T01:05:16;7.93;;;2.35;;
22916;SDS011;11624;53.250;7.456;2022-07-29T01:07:49;6.25;;;2.30;;
22916;SDS011;11624;53.250;7.456;2022-07-29T01:10:20;5.93;;;2.00;;
22916;SDS011;11624;53.250;7.456;2022-07-29T01:12:56;8.20;;;2.13;;
22916;SDS011;11624;53.250;7.456;2022-07-29T01:24:11;5.93;;;2.33;;
22916;SDS011;11624;53.250;7.456;2022-07-29T01:26:52;7.10;;;2.03;;
22916;SDS011;11624;53.250;7.456;2022-07-29T01:29:28;8.25;;;2.13;;
22916;SDS011;11624;53.250;7.456;2022-07-29T01:32:07;6.68;;;2.00;;
22916;SDS011;11624;53.250;7.456;2022-07-29T01:34:58;7.22;;;2.03;;
22916;SDS011;11624;53.250;7.456;2022-07-29T01:37:52;7.40;;;2.10;;
22916;SDS011;11624;53.250;7.456;2022-07-29T01:40:25;5.15;;;2.35;;
22916;SDS011;11624;53.250;7.456;2022-07-29T01:42:59;9.05;;;2.35;;
22916;SDS011;11624;53.250;7.456;2022-07-29T01:45:39;4.68;;;1.90;;
22916;SDS011;11624;53.250;7.456;2022-07-29T01:48:11;5.30;;;2.05;;
22916;SDS011;11624;53.250;7.456;2022-07-29T01:50:46;7.65;;;2.20;;
22916;SDS011;11624;53.250;7.456;2022-07-29T01:53:17;8.35;;;2.00;;
22916;SDS011;11624;53.250;7.456;2022-07-29T01:56:03;6.05;;;2.10;;
22916;SDS011;11624;53.250;7.456;2022-07-29T01:58:34;8.82;;;2.08;;
22916;SDS011;11624;53.250;7.456;2022-07-29T02:01:15;5.63;;;2.10;;
22916;SDS011;11624;53.250;7.456;2022-07-29T02:03:47;9.38;;;2.10;;
22916;SDS011;11624;53.250;7.456;2022-07-29T02:06:17;7.40;;;2.25;;
22916;SDS011;11624;53.250;7.456;2022-07-29T02:08:51;4.25;;;1.95;;
22916;SDS011;11624;53.250;7.456;2022-07-29T02:11:26;7.47;;;2.17;;
22916;SDS011;11624;53.250;7.456;2022-07-29T02:13:58;4.72;;;2.10;;
22916;SDS011;11624;53.250;7.456;2022-07-29T02:16:30;8.57;;;2.42;;
22916;SDS011;11624;53.250;7.456;2022-07-29T02:19:02;7.38;;;2.20;;
22916;SDS011;11624;53.250;7.456;2022-07-29T02:21:32;7.15;;;1.90;;
22916;SDS011;11624;53.250;7.456;2022-07-29T02:24:03;7.40;;;2.47;;
22916;SDS011;11624;53.250;7.456;2022-07-29T02:26:34;7.25;;;1.95;;
22916;SDS011;11624;53.250;7.456;2022-07-29T02:29:03;6.60;;;2.30;;
22916;SDS011;11624;53.250;7.456;2022-07-29T02:31:33;12.52;;;2.30;;
22916;SDS011;11624;53.250;7.456;2022-07-29T02:34:04;6.50;;;2.13;;
22916;SDS011;11624;53.250;7.456;2022-07-29T02:36:36;10.43;;;2.20;;
22916;SDS011;11624;53.250;7.456;2022-07-29T02:39:05;5.85;;;2.10;;
22916;SDS011;11624;53.250;7.456;2022-07-29T02:41:40;8.18;;;2.05;;
22916;SDS011;11624;53.250;7.456;2022-07-29T02:44:10;7.57;;;2.13;;
22916;SDS011;11624;53.250;7.456;2022-07-29T02:46:45;10.00;;;2.40;;
22916;SDS011;11624;53.250;7.456;2022-07-29T02:49:18;10.23;;;2.30;;
22916;SDS011;11624;53.250;7.456;2022-07-29T02:51:58;7.25;;;2.20;;
22916;SDS011;11624;53.250;7.456;2022-07-29T02:54:31;6.38;;;2.13;;
22916;SDS011;11624;53.250;7.456;2022-07-29T02:57:09;8.45;;;2.20;;
22916;SDS011;11624;53.250;7.456;2022-07-29T02:59:42;13.23;;;2.30;;
22916;SDS011;11624;53.250;7.456;2022-07-29T03:02:14;10.88;;;2.35;;
22916;SDS011;11624;53.250;7.456;2022-07-29T03:04:44;4.13;;;1.80;;
22916;SDS011;11624;53.250;7.456;2022-07-29T03:07:24;7.72;;;2.30;;
22916;SDS011;11624;53.250;7.456;2022-07-29T03:09:56;7.18;;;2.10;;
22916;SDS011;11624;53.250;7.456;2022-07-29T03:12:25;11.82;;;2.50;;
22916;SDS011;11624;53.250;7.456;2022-07-29T03:14:53;5.85;;;1.92;;
22916;SDS011;11624;53.250;7.456;2022-07-29T03:17:24;7.93;;;2.25;;
22916;SDS011;11624;53.250;7.456;2022-07-29T03:19:53;8.60;;;2.30;;
22916;SDS011;11624;53.250;7.456;2022-07-29T03:23:18;9.38;;;2.47;;
22916;SDS011;11624;53.250;7.456;2022-07-29T03:27:10;8.45;;;2.30;;
22916;SDS011;11624;53.250;7.456;2022-07-29T03:48:21;12.38;;;2.10;;
22916;SDS011;11624;53.250;7.456;2022-07-29T03:59:59;8.45;;;2.25;;
22916;SDS011;11624;53.250;7.456;2022-07-29T04:49:19;7.50;;;2.10;;
22916;SDS011;11624;53.250;7.456;2022-07-29T04:52:42;9.20;;;2.13;;
22916;SDS011;11624;53.250;7.456;2022-07-29T04:56:01;8.02;;;2.00;;
22916;SDS011;11624;53.250;7.456;2022-07-29T04:59:47;8.15;;;2.63;;
22916;SDS011;11624;53.250;7.456;2022-07-29T05:18:58;7.18;;;2.08;;
22916;SDS011;11624;53.250;7.456;2022-07-29T05:22:08;10.73;;;2.38;;
22916;SDS011;11624;53.250;7.456;2022-07-29T05:25:15;8.27;;;2.30;;
22916;SDS011;11624;53.250;7.456;2022-07-29T05:35:49;6.40;;;2.13;;
22916;SDS011;11624;53.250;7.456;2022-07-29T05:47:52;9.20;;;2.20;;
22916;SDS011;11624;53.250;7.456;2022-07-29T05:50:20;9.15;;;2.88;;
22916;SDS011;11624;53.250;7.456;2022-07-29T05:52:48;7.20;;;2.38;;
22916;SDS011;11624;53.250;7.456;2022-07-29T05:55:16;9.15;;;2.75;;
22916;SDS011;11624;53.250;7.456;2022-07-29T05:57:44;12.43;;;2.42;;
22916;SDS011;11624;53.250;7.456;2022-07-29T06:00:12;9.00;;;2.40;;
22916;SDS011;11624;53.250;7.456;2022-07-29T06:02:41;8.10;;;2.60;;
22916;SDS011;11624;53.250;7.456;2022-07-29T06:05:12;11.70;;;2.65;;
22916;SDS011;11624;53.250;7.456;2022-07-29T06:07:46;7.45;;;2.60;;
22916;SDS011;11624;53.250;7.456;2022-07-29T06:10:16;10.30;;;2.53;;
22916;SDS011;11624;53.250;7.456;2022-07-29T06:12:49;11.15;;;2.70;;
22916;SDS011;11624;53.250;7.456;2022-07-29T06:15:24;11.45;;;2.28;;
22916;SDS011;11624;53.250;7.456;2022-07-29T06:17:52;10.35;;;2.58;;
22916;SDS011;11624;53.250;7.456;2022-07-29T06:20:31;8.68;;;2.40;;
22916;SDS011;11624;53.250;7.456;2022-07-29T06:22:59;8.07;;;2.45;;
22916;SDS011;11624;53.250;7.456;2022-07-29T06:25:29;13.23;;;2.67;;
22916;SDS011;11624;53.250;7.456;2022-07-29T06:27:58;7.68;;;2.33;;
22916;SDS011;11624;53.250;7.456;2022-07-29T06:30:31;12.02;;;2.60;;
22916;SDS011;11624;53.250;7.456;2022-07-29T06:32:59;9.20;;;2.70;;
22916;SDS011;11624;53.250;7.456;2022-07-29T06:35:28;7.97;;;2.28;;
22916;SDS011;11624;53.250;7.456;2022-07-29T06:38:08;12.57;;;2.88;;
22916;SDS011;11624;53.250;7.456;2022-07-29T06:40:57;8.85;;;2.70;;
22916;SDS011;11624;53.250;7.456;2022-07-29T06:43:31;8.82;;;2.33;;
22916;SDS011;11624;53.250;7.456;2022-07-29T06:46:20;10.20;;;2.92;;
22916;SDS011;11624;53.250;7.456;2022-07-29T06:48:49;9.38;;;2.58;;
22916;SDS011;11624;53.250;7.456;2022-07-29T06:51:19;11.07;;;2.72;;
22916;SDS011;11624;53.250;7.456;2022-07-29T06:53:50;12.30;;;2.47;;
22916;SDS011;11624;53.250;7.456;2022-07-29T06:56:25;9.20;;;2.63;;
22916;SDS011;11624;53.250;7.456;2022-07-29T06:58:53;8.60;;;2.78;;
22916;SDS011;11624;53.250;7.456;2022-07-29T07:01:21;10.32;;;2.53;;
22916;SDS011;11624;53.250;7.456;2022-07-29T07:03:49;7.70;;;2.38;;
22916;SDS011;11624;53.250;7.456;2022-07-29T07:06:17;9.38;;;2.40;;
22916;SDS011;11624;53.250;7.456;2022-07-29T07:08:45;6.32;;;2.67;;
22916;SDS011;11624;53.250;7.456;2022-07-29T07:11:16;10.80;;;2.53;;
22916;SDS011;11624;53.250;7.456;2022-07-29T07:14:08;8.43;;;2.47;;
22916;SDS011;11624;53.250;7.456;2022-07-29T07:16:36;7.35;;;2.58;;
22916;SDS011;11624;53.250;7.456;2022-07-29T07:19:04;9.27;;;2.63;;
22916;SDS011;11624;53.250;7.456;2022-07-29T07:21:33;6.80;;;2.47;;
22916;SDS011;11624;53.250;7.456;2022-07-29T07:24:03;8.07;;;2.50;;
22916;SDS011;11624;53.250;7.456;2022-07-29T07:26:33;8.32;;;2.67;;
22916;SDS011;11624;53.250;7.456;2022-07-29T07:29:01;8.65;;;2.53;;
22916;SDS011;11624;53.250;7.456;2022-07-29T07:31:32;9.88;;;2.60;;
22916;SDS011;11624;53.250;7.456;2022-07-29T07:34:04;9.98;;;2.97;;
22916;SDS011;11624;53.250;7.456;2022-07-29T07:36:32;12.65;;;2.90;;
22916;SDS011;11624;53.250;7.456;2022-07-29T07:39:00;9.13;;;2.60;;
22916;SDS011;11624;53.250;7.456;2022-07-29T07:41:29;8.65;;;2.70;;
22916;SDS011;11624;53.250;7.456;2022-07-29T07:43:59;9.20;;;2.60;;
22916;SDS011;11624;53.250;7.456;2022-07-29T07:46:27;7.40;;;2.40;;
22916;SDS011;11624;53.250;7.456;2022-07-29T07:48:55;7.28;;;2.47;;
22916;SDS011;11624;53.250;7.456;2022-07-29T07:51:24;9.02;;;2.78;;
22916;SDS011;11624;53.250;7.456;2022-07-29T07:53:52;9.05;;;2.53;;
22916;SDS011;11624;53.250;7.456;2022-07-29T07:56:20;8.50;;;2.40;;
22916;SDS011;11624;53.250;7.456;2022-07-29T07:58:48;9.77;;;2.50;;
22916;SDS011;11624;53.250;7.456;2022-07-29T08:01:18;7.47;;;2.50;;
22916;SDS011;11624;53.250;7.456;2022-07-29T08:03:49;7.97;;;2.40;;
22916;SDS011;11624;53.250;7.456;2022-07-29T08:06:19;11.48;;;2.50;;
22916;SDS011;11624;53.250;7.456;2022-07-29T08:08:47;9.05;;;2.50;;
22916;SDS011;11624;53.250;7.456;2022-07-29T08:11:15;10.13;;;2.70;;
22916;SDS011;11624;53.250;7.456;2022-07-29T08:13:43;11.98;;;2.50;;
22916;SDS011;11624;53.250;7.456;2022-07-29T08:16:13;6.60;;;2.40;;
22916;SDS011;11624;53.250;7.456;2022-07-29T08:18:44;9.77;;;2.50;;
22916;SDS011;11624;53.250;7.456;2022-07-29T08:21:15;8.25;;;2.70;;
22916;SDS011;11624;53.250;7.456;2022-07-29T08:23:44;13.80;;;2.72;;
22916;SDS011;11624;53.250;7.456;2022-07-29T08:26:25;10.57;;;2.60;;
22916;SDS011;11624;53.250;7.456;2022-07-29T08:28:55;11.43;;;2.75;;
22916;SDS011;11624;53.250;7.456;2022-07-29T08:31:24;6.65;;;2.38;;
22916;SDS011;11624;53.250;7.456;2022-07-29T08:33:55;8.80;;;2.70;;
22916;SDS011;11624;53.250;7.456;2022-07-29T08:36:27;6.50;;;2.53;;
22916;SDS011;11624;53.250;7.456;2022-07-29T08:38:55;8.05;;;2.40;;
22916;SDS011;11624;53.250;7.456;2022-07-29T08:41:24;7.22;;;2.58;;
22916;SDS011;11624;53.250;7.456;2022-07-29T08:43:53;10.50;;;2.58;;
22916;SDS011;11624;53.250;7.456;2022-07-29T08:46:22;11.65;;;2.75;;
22916;SDS011;11624;53.250;7.456;2022-07-29T08:48:51;8.95;;;2.45;;
22916;SDS011;11624;53.250;7.456;2022-07-29T08:51:20;9.55;;;2.65;;
22916;SDS011;11624;53.250;7.456;2022-07-29T08:53:50;9.63;;;2.70;;
22916;SDS011;11624;53.250;7.456;2022-07-29T08:56:18;11.10;;;2.60;;
22916;SDS011;11624;53.250;7.456;2022-07-29T08:58:49;8.88;;;2.40;;
22916;SDS011;11624;53.250;7.456;2022-07-29T09:01:23;6.82;;;2.45;;
22916;SDS011;11624;53.250;7.456;2022-07-29T09:04:04;9.95;;;2.70;;
22916;SDS011;11624;53.250;7.456;2022-07-29T09:06:51;10.32;;;2.53;;
22916;SDS011;11624;53.250;7.456;2022-07-29T09:09:24;8.43;;;2.65;;
22916;SDS011;11624;53.250;7.456;2022-07-29T09:11:54;10.63;;;2.88;;
22916;SDS011;11624;53.250;7.456;2022-07-29T09:14:24;7.78;;;2.63;;
22916;SDS011;11624;53.250;7.456;2022-07-29T09:16:54;7.70;;;2.70;;
22916;SDS011;11624;53.250;7.456;2022-07-29T09:19:25;8.25;;;2.38;;
22916;SDS011;11624;53.250;7.456;2022-07-29T09:21:56;9.60;;;2.45;;
22916;SDS011;11624;53.250;7.456;2022-07-29T09:24:25;10.65;;;2.88;;
22916;SDS011;11624;53.250;7.456;2022-07-29T09:27:11;9.13;;;2.55;;
22916;SDS011;11624;53.250;7.456;2022-07-29T09:29:47;11.25;;;2.83;;
22916;SDS011;11624;53.250;7.456;2022-07-29T09:32:23;8.13;;;2.22;;
22916;SDS011;11624;53.250;7.456;2022-07-29T09:37:43;9.20;;;2.80;;
22916;SDS011;11624;53.250;7.456;2022-07-29T09:40:13;10.50;;;2.60;;
22916;SDS011;11624;53.250;7.456;2022-07-29T09:42:45;11.02;;;2.92;;
22916;SDS011;11624;53.250;7.456;2022-07-29T09:45:25;8.60;;;2.55;;
22916;SDS011;11624;53.250;7.456;2022-07-29T09:47:55;9.30;;;2.75;;
22916;SDS011;11624;53.250;7.456;2022-07-29T09:50:34;11.15;;;2.80;;
22916;SDS011;11624;53.250;7.456;2022-07-29T09:53:04;13.18;;;3.10;;
22916;SDS011;11624;53.250;7.456;2022-07-29T09:55:40;10.40;;;2.78;;
22916;SDS011;11624;53.250;7.456;2022-07-29T09:58:15;11.20;;;2.72;;
22916;SDS011;11624;53.250;7.456;2022-07-29T10:00:44;9.23;;;2.80;;
22916;SDS011;11624;53.250;7.456;2022-07-29T10:03:17;11.05;;;2.85;;
22916;SDS011;11624;53.250;7.456;2022-07-29T10:05:47;6.20;;;2.20;;
22916;SDS011;11624;53.250;7.456;2022-07-29T10:08:34;10.07;;;2.47;;
22916;SDS011;11624;53.250;7.456;2022-07-29T10:11:09;10.98;;;2.78;;
22916;SDS011;11624;53.250;7.456;2022-07-29T10:13:43;11.07;;;2.90;;
22916;SDS011;11624;53.250;7.456;2022-07-29T10:16:16;10.00;;;2.63;;
22916;SDS011;11624;53.250;7.456;2022-07-29T10:18:46;9.57;;;2.97;;
22916;SDS011;11624;53.250;7.456;2022-07-29T10:21:16;9.07;;;2.58;;
22916;SDS011;11624;53.250;7.456;2022-07-29T10:24:07;10.77;;;2.67;;
22916;SDS011;11624;53.250;7.456;2022-07-29T10:26:41;9.07;;;3.20;;
22916;SDS011;11624;53.250;7.456;2022-07-29T10:29:14;14.85;;;3.00;;
22916;SDS011;11624;53.250;7.456;2022-07-29T10:31:49;8.40;;;2.88;;
22916;SDS011;11624;53.250;7.456;2022-07-29T10:34:30;9.90;;;2.50;;
22916;SDS011;11624;53.250;7.456;2022-07-29T10:37:07;7.72;;;2.45;;
22916;SDS011;11624;53.250;7.456;2022-07-29T10:39:50;10.30;;;2.72;;
22916;SDS011;11624;53.250;7.456;2022-07-29T10:42:27;8.50;;;2.50;;
22916;SDS011;11624;53.250;7.456;2022-07-29T10:45:18;9.35;;;2.83;;
22916;SDS011;11624;53.250;7.456;2022-07-29T10:47:47;8.30;;;2.70;;
22916;SDS011;11624;53.250;7.456;2022-07-29T10:53:51;10.75;;;3.13;;
22916;SDS011;11624;53.250;7.456;2022-07-29T10:56:35;10.65;;;3.10;;
22916;SDS011;11624;53.250;7.456;2022-07-29T11:02:02;11.60;;;3.10;;
22916;SDS011;11624;53.250;7.456;2022-07-29T11:05:21;7.88;;;2.80;;
22916;SDS011;11624;53.250;7.456;2022-07-29T11:14:15;10.45;;;3.10;;
22916;SDS011;11624;53.250;7.456;2022-07-29T11:17:03;14.57;;;3.00;;
22916;SDS011;11624;53.250;7.456;2022-07-29T11:19:34;11.35;;;2.55;;
22916;SDS011;11624;53.250;7.456;2022-07-29T11:22:08;12.25;;;2.83;;
22916;SDS011;11624;53.250;7.456;2022-07-29T11:24:42;8.23;;;2.75;;
22916;SDS011;11624;53.250;7.456;2022-07-29T11:27:16;9.70;;;2.90;;
22916;SDS011;11624;53.250;7.456;2022-07-29T11:29:51;8.63;;;2.58;;
22916;SDS011;11624;53.250;7.456;2022-07-29T11:32:22;9.85;;;2.40;;
22916;SDS011;11624;53.250;7.456;2022-07-29T11:35:16;7.40;;;2.50;;
22916;SDS011;11624;53.250;7.456;2022-07-29T11:43:49;8.35;;;2.03;;
22916;SDS011;11624;53.250;7.456;2022-07-29T11:49:18;7.60;;;2.00;;
22916;SDS011;11624;53.250;7.456;2022-07-29T11:51:58;12.43;;;2.40;;
22916;SDS011;11624;53.250;7.456;2022-07-29T11:54:30;12.45;;;2.50;;
22916;SDS011;11624;53.250;7.456;2022-07-29T11:57:20;8.50;;;2.30;;
22916;SDS011;11624;53.250;7.456;2022-07-29T12:00:03;10.80;;;2.50;;
22916;SDS011;11624;53.250;7.456;2022-07-29T12:02:39;9.35;;;2.28;;
22916;SDS011;11624;53.250;7.456;2022-07-29T12:05:14;8.43;;;2.20;;
22916;SDS011;11624;53.250;7.456;2022-07-29T12:08:06;7.15;;;2.00;;
22916;SDS011;11624;53.250;7.456;2022-07-29T12:10:40;7.32;;;2.00;;
22916;SDS011;11624;53.250;7.456;2022-07-29T12:13:10;10.38;;;2.20;;
22916;SDS011;11624;53.250;7.456;2022-07-29T12:15:39;11.48;;;2.17;;
22916;SDS011;11624;53.250;7.456;2022-07-29T12:18:15;7.22;;;2.28;;
22916;SDS011;11624;53.250;7.456;2022-07-29T12:20:56;8.98;;;2.50;;
22916;SDS011;11624;53.250;7.456;2022-07-29T12:23:29;8.70;;;2.22;;
22916;SDS011;11624;53.250;7.456;2022-07-29T12:26:03;7.20;;;2.00;;
22916;SDS011;11624;53.250;7.456;2022-07-29T12:28:37;8.95;;;2.60;;
22916;SDS011;11624;53.250;7.456;2022-07-29T12:31:08;10.52;;;2.28;;
22916;SDS011;11624;53.250;7.456;2022-07-29T12:34:02;8.95;;;2.13;;
22916;SDS011;11624;53.250;7.456;2022-07-29T12:36:30;11.45;;;2.30;;
22916;SDS011;11624;53.250;7.456;2022-07-29T12:38:59;9.90;;;2.55;;
22916;SDS011;11624;53.250;7.456;2022-07-29T12:41:28;11.25;;;2.40;;
22916;SDS011;11624;53.250;7.456;2022-07-29T12:43:57;9.38;;;2.20;;
22916;SDS011;11624;53.250;7.456;2022-07-29T12:46:25;8.73;;;2.42;;
22916;SDS011;11624;53.250;7.456;2022-07-29T12:48:54;8.05;;;2.25;;
22916;SDS011;11624;53.250;7.456;2022-07-29T12:51:31;7.05;;;2.20;;
22916;SDS011;11624;53.250;7.456;2022-07-29T12:54:08;7.72;;;2.65;;
22916;SDS011;11624;53.250;7.456;2022-07-29T12:56:40;9.63;;;2.42;;
22916;SDS011;11624;53.250;7.456;2022-07-29T12:59:11;11.38;;;2.80;;
22916;SDS011;11624;53.250;7.456;2022-07-29T13:01:41;7.50;;;2.10;;
22916;SDS011;11624;53.250;7.456;2022-07-29T13:04:09;7.70;;;2.22;;
22916;SDS011;11624;53.250;7.456;2022-07-29T13:06:40;9.95;;;2.40;;
22916;SDS011;11624;53.250;7.456;2022-07-29T13:09:17;9.05;;;2.63;;
22916;SDS011;11624;53.250;7.456;2022-07-29T13:11:49;9.45;;;2.20;;
22916;SDS011;11624;53.250;7.456;2022-07-29T13:14:29;8.63;;;2.05;;
22916;SDS011;11624;53.250;7.456;2022-07-29T13:17:03;9.05;;;2.55;;
22916;SDS011;11624;53.250;7.456;2022-07-29T13:19:37;13.35;;;2.65;;
22916;SDS011;11624;53.250;7.456;2022-07-29T13:22:09;13.23;;;2.88;;
22916;SDS011;11624;53.250;7.456;2022-07-29T13:24:45;9.63;;;2.80;;
22916;SDS011;11624;53.250;7.456;2022-07-29T13:27:15;10.30;;;2.85;;
22916;SDS011;11624;53.250;7.456;2022-07-29T13:29:43;11.50;;;3.22;;
22916;SDS011;11624;53.250;7.456;2022-07-29T13:32:13;9.25;;;2.65;;
22916;SDS011;11624;53.250;7.456;2022-07-29T13:34:41;8.10;;;2.83;;
22916;SDS011;11624;53.250;7.456;2022-07-29T13:37:11;10.75;;;3.08;;
22916;SDS011;11624;53.250;7.456;2022-07-29T13:39:39;10.05;;;3.15;;
22916;SDS011;11624;53.250;7.456;2022-07-29T13:42:18;14.25;;;3.00;;
22916;SDS011;11624;53.250;7.456;2022-07-29T13:44:47;13.93;;;2.97;;
22916;SDS011;11624;53.250;7.456;2022-07-29T13:47:17;11.60;;;3.17;;
22916;SDS011;11624;53.250;7.456;2022-07-29T13:49:46;9.18;;;2.90;;
22916;SDS011;11624;53.250;7.456;2022-07-29T13:52:16;11.13;;;2.70;;
22916;SDS011;11624;53.250;7.456;2022-07-29T13:54:44;14.43;;;3.72;;
22916;SDS011;11624;53.250;7.456;2022-07-29T13:57:13;8.73;;;2.97;;
22916;SDS011;11624;53.250;7.456;2022-07-29T13:59:42;11.52;;;3.13;;
22916;SDS011;11624;53.250;7.456;2022-07-29T14:02:16;11.48;;;2.90;;
22916;SDS011;11624;53.250;7.456;2022-07-29T14:04:44;9.90;;;2.70;;
22916;SDS011;11624;53.250;7.456;2022-07-29T14:07:13;9.30;;;3.20;;
22916;SDS011;11624;53.250;7.456;2022-07-29T14:09:43;11.88;;;2.80;;
22916;SDS011;11624;53.250;7.456;2022-07-29T14:12:12;10.27;;;2.90;;
22916;SDS011;11624;53.250;7.456;2022-07-29T14:14:40;12.98;;;3.15;;
22916;SDS011;11624;53.250;7.456;2022-07-29T14:17:09;8.88;;;3.05;;
22916;SDS011;11624;53.250;7.456;2022-07-29T14:19:37;12.27;;;3.30;;
22916;SDS011;11624;53.250;7.456;2022-07-29T14:22:06;10.60;;;3.47;;
22916;SDS011;11624;53.250;7.456;2022-07-29T14:24:36;8.85;;;3.20;;
22916;SDS011;11624;53.250;7.456;2022-07-29T14:27:07;9.48;;;3.15;;
22916;SDS011;11624;53.250;7.456;2022-07-29T14:29:35;13.90;;;4.60;;
22916;SDS011;11624;53.250;7.456;2022-07-29T14:32:05;15.18;;;4.90;;
22916;SDS011;11624;53.250;7.456;2022-07-29T14:34:34;15.48;;;4.18;;
22916;SDS011;11624;53.250;7.456;2022-07-29T14:37:03;17.98;;;5.75;;
22916;SDS011;11624;53.250;7.456;2022-07-29T14:39:32;17.25;;;4.85;;
22916;SDS011;11624;53.250;7.456;2022-07-29T14:42:10;15.27;;;4.55;;
22916;SDS011;11624;53.250;7.456;2022-07-29T14:44:39;11.88;;;3.90;;
22916;SDS011;11624;53.250;7.456;2022-07-29T14:47:10;9.38;;;3.55;;
22916;SDS011;11624;53.250;7.456;2022-07-29T14:49:38;9.70;;;3.53;;
22916;SDS011;11624;53.250;7.456;2022-07-29T14:52:07;12.52;;;3.55;;
22916;SDS011;11624;53.250;7.456;2022-07-29T14:54:35;13.07;;;4.00;;
22916;SDS011;11624;53.250;7.456;2022-07-29T14:57:05;13.25;;;4.00;;
22916;SDS011;11624;53.250;7.456;2022-07-29T14:59:35;11.43;;;3.65;;
22916;SDS011;11624;53.250;7.456;2022-07-29T15:02:04;12.32;;;3.83;;
22916;SDS011;11624;53.250;7.456;2022-07-29T15:04:32;14.45;;;3.78;;
22916;SDS011;11624;53.250;7.456;2022-07-29T15:07:01;14.10;;;3.92;;
22916;SDS011;11624;53.250;7.456;2022-07-29T15:09:31;9.93;;;3.72;;
22916;SDS011;11624;53.250;7.456;2022-07-29T15:12:06;13.45;;;3.78;;
22916;SDS011;11624;53.250;7.456;2022-07-29T15:14:38;12.43;;;3.88;;
22916;SDS011;11624;53.250;7.456;2022-07-29T15:17:06;13.45;;;4.15;;
22916;SDS011;11624;53.250;7.456;2022-07-29T15:19:35;12.68;;;4.25;;
22916;SDS011;11624;53.250;7.456;2022-07-29T15:22:04;11.93;;;3.50;;
22916;SDS011;11624;53.250;7.456;2022-07-29T15:24:33;12.45;;;3.50;;
22916;SDS011;11624;53.250;7.456;2022-07-29T15:27:02;9.60;;;3.40;;
22916;SDS011;11624;53.250;7.456;2022-07-29T15:29:30;13.45;;;4.03;;
22916;SDS011;11624;53.250;7.456;2022-07-29T15:32:00;9.45;;;3.70;;
22916;SDS011;11624;53.250;7.456;2022-07-29T15:34:29;11.77;;;3.75;;
22916;SDS011;11624;53.250;7.456;2022-07-29T15:36:57;13.07;;;3.88;;
22916;SDS011;11624;53.250;7.456;2022-07-29T15:39:25;10.77;;;4.00;;
22916;SDS011;11624;53.250;7.456;2022-07-29T15:41:54;10.40;;;4.00;;
22916;SDS011;11624;53.250;7.456;2022-07-29T15:44:23;11.30;;;3.90;;
22916;SDS011;11624;53.250;7.456;2022-07-29T15:46:51;13.75;;;4.15;;
22916;SDS011;11624;53.250;7.456;2022-07-29T15:49:34;13.38;;;4.22;;
22916;SDS011;11624;53.250;7.456;2022-07-29T15:52:15;9.90;;;3.55;;
22916;SDS011;11624;53.250;7.456;2022-07-29T15:54:52;12.10;;;3.80;;
22916;SDS011;11624;53.250;7.456;2022-07-29T15:57:21;12.82;;;3.90;;
22916;SDS011;11624;53.250;7.456;2022-07-29T15:59:50;13.13;;;3.92;;
22916;SDS011;11624;53.250;7.456;2022-07-29T16:02:18;14.10;;;3.72;;
22916;SDS011;11624;53.250;7.456;2022-07-29T16:04:48;13.27;;;3.72;;
22916;SDS011;11624;53.250;7.456;2022-07-29T16:07:17;14.88;;;3.90;;
22916;SDS011;11624;53.250;7.456;2022-07-29T16:09:45;14.38;;;3.67;;
22916;SDS011;11624;53.250;7.456;2022-07-29T16:12:19;12.45;;;4.07;;
22916;SDS011;11624;53.250;7.456;2022-07-29T16:14:47;12.98;;;3.60;;
22916;SDS011;11624;53.250;7.456;2022-07-29T16:17:17;14.20;;;4.00;;
22916;SDS011;11624;53.250;7.456;2022-07-29T16:19:46;11.27;;;3.70;;
22916;SDS011;11624;53.250;7.456;2022-07-29T16:22:16;11.57;;;3.28;;
22916;SDS011;11624;53.250;7.456;2022-07-29T16:24:44;10.55;;;3.10;;
22916;SDS011;11624;53.250;7.456;2022-07-29T16:27:13;11.88;;;3.38;;
22916;SDS011;11624;53.250;7.456;2022-07-29T16:29:41;10.82;;;3.80;;
22916;SDS011;11624;53.250;7.456;2022-07-29T16:32:12;10.70;;;3.33;;
22916;SDS011;11624;53.250;7.456;2022-07-29T16:34:48;11.23;;;3.47;;
22916;SDS011;11624;53.250;7.456;2022-07-29T16:37:18;12.38;;;3.67;;
22916;SDS011;11624;53.250;7.456;2022-07-29T16:39:49;9.25;;;3.25;;
22916;SDS011;11624;53.250;7.456;2022-07-29T16:42:17;13.50;;;3.53;;
22916;SDS011;11624;53.250;7.456;2022-07-29T16:45:06;10.68;;;3.58;;
22916;SDS011;11624;53.250;7.456;2022-07-29T16:47:36;9.80;;;3.40;;
22916;SDS011;11624;53.250;7.456;2022-07-29T16:50:05;14.63;;;3.70;;
22916;SDS011;11624;53.250;7.456;2022-07-29T16:52:35;13.02;;;3.38;;
22916;SDS011;11624;53.250;7.456;2022-07-29T16:55:04;11.68;;;3.42;;
22916;SDS011;11624;53.250;7.456;2022-07-29T16:57:33;14.32;;;3.78;;
22916;SDS011;11624;53.250;7.456;2022-07-29T17:00:02;13.50;;;3.63;;
22916;SDS011;11624;53.250;7.456;2022-07-29T17:02:32;10.35;;;3.80;;
22916;SDS011;11624;53.250;7.456;2022-07-29T17:05:00;10.43;;;3.50;;
22916;SDS011;11624;53.250;7.456;2022-07-29T17:07:48;13.30;;;3.47;;
22916;SDS011;11624;53.250;7.456;2022-07-29T17:10:17;13.85;;;3.40;;
22916;SDS011;11624;53.250;7.456;2022-07-29T17:12:46;10.55;;;3.50;;
22916;SDS011;11624;53.250;7.456;2022-07-29T17:15:15;10.55;;;3.42;;
22916;SDS011;11624;53.250;7.456;2022-07-29T17:17:44;12.05;;;3.60;;
22916;SDS011;11624;53.250;7.456;2022-07-29T17:20:22;12.20;;;3.28;;
22916;SDS011;11624;53.250;7.456;2022-07-29T17:22:53;12.23;;;3.72;;
22916;SDS011;11624;53.250;7.456;2022-07-29T17:25:21;11.15;;;3.20;;
22916;SDS011;11624;53.250;7.456;2022-07-29T17:27:50;14.32;;;3.70;;
22916;SDS011;11624;53.250;7.456;2022-07-29T17:30:22;13.25;;;3.40;;
22916;SDS011;11624;53.250;7.456;2022-07-29T17:32:50;12.85;;;3.50;;
22916;SDS011;11624;53.250;7.456;2022-07-29T17:35:19;11.57;;;3.50;;
22916;SDS011;11624;53.250;7.456;2022-07-29T17:38:06;13.93;;;3.70;;
22916;SDS011;11624;53.250;7.456;2022-07-29T17:40:34;10.00;;;3.28;;